createdAt,value
2022-11-05T00:00:38.769Z,7.60
2022-11-05T00:03:24.042Z,7.80
2022-11-05T00:06:12.180Z,7.80
2022-11-05T00:08:59.220Z,7.70
2022-11-05T00:11:45.914Z,7.70
2022-11-05T00:14:31.536Z,7.60
2022-11-05T00:16:58.299Z,7.80
2022-11-05T00:19:24.992Z,7.80
2022-11-05T00:22:10.438Z,7.70
2022-11-05T00:24:55.788Z,7.30
2022-11-05T00:27:22.512Z,7.00
2022-11-05T00:29:49.206Z,7.20
2022-11-05T00:32:15.967Z,7.10
2022-11-05T00:34:42.661Z,6.40
2022-11-05T00:37:09.418Z,6.70
2022-11-05T00:39:36.312Z,6.70
2022-11-05T00:42:21.872Z,6.90
2022-11-05T00:45:03.771Z,7.10
2022-11-05T00:47:50.082Z,7.40
2022-11-05T00:50:17.624Z,7.60
2022-11-05T00:52:56.718Z,7.70
2022-11-05T00:55:29.429Z,7.80
2022-11-05T00:57:57.430Z,7.90
2022-11-05T01:00:26.252Z,7.80
2022-11-05T01:02:53.278Z,7.60
2022-11-05T01:05:20.245Z,7.80
2022-11-05T01:07:46.945Z,8.00
2022-11-05T01:10:13.770Z,8.00
2022-11-05T01:12:40.528Z,8.20
2022-11-05T01:15:07.773Z,8.30
2022-11-05T01:17:34.695Z,8.40
2022-11-05T01:20:01.627Z,8.40
2022-11-05T01:22:28.360Z,8.50
2022-11-05T01:24:55.074Z,8.60
2022-11-05T01:27:21.857Z,8.70
2022-11-05T01:29:48.537Z,8.70
2022-11-05T01:32:15.244Z,8.70
2022-11-05T01:34:41.944Z,8.90
2022-11-05T01:37:08.637Z,8.80
2022-11-05T01:39:35.336Z,8.60
2022-11-05T01:42:02.232Z,8.50
2022-11-05T01:44:57.122Z,8.80
2022-11-05T01:47:39.528Z,8.50
2022-11-05T01:50:26.573Z,8.50
2022-11-05T01:53:14.208Z,8.30
2022-11-05T01:55:46.132Z,8.40
2022-11-05T01:58:16.400Z,8.50
2022-11-05T02:00:43.904Z,8.50
2022-11-05T02:03:13.542Z,8.60
2022-11-05T02:05:41.907Z,8.80
2022-11-05T02:08:16.578Z,8.70
2022-11-05T02:10:45.617Z,8.60
2022-11-05T02:13:12.567Z,8.60
2022-11-05T02:16:03.223Z,8.70
2022-11-05T02:18:41.317Z,8.80
2022-11-05T02:21:10.802Z,8.90
2022-11-05T02:24:06.797Z,8.80
2022-11-05T02:26:57.996Z,8.80
2022-11-05T02:29:49.066Z,8.80
2022-11-05T02:32:27.538Z,8.80
2022-11-05T02:34:56.955Z,8.90
2022-11-05T02:37:35.494Z,9.00
2022-11-05T02:40:11.542Z,8.90
2022-11-05T02:42:49.978Z,9.00
2022-11-05T02:45:32.320Z,9.10
2022-11-05T02:48:14.395Z,9.10
2022-11-05T02:50:53.750Z,9.10
2022-11-05T02:53:33.174Z,9.20
2022-11-05T02:56:05.564Z,8.90
2022-11-05T02:58:34.741Z,9.30
2022-11-05T03:01:06.760Z,9.30
2022-11-05T03:03:45.693Z,9.30
2022-11-05T03:06:26.332Z,9.20
2022-11-05T03:09:30.839Z,9.30
2022-11-05T03:12:12.317Z,9.20
2022-11-05T03:15:07.170Z,8.90
2022-11-05T03:17:52.770Z,8.80
2022-11-05T03:21:09.517Z,9.00
2022-11-05T03:23:41.778Z,9.60
2022-11-05T03:26:31.509Z,9.10
2022-11-05T03:29:18.050Z,9.10
2022-11-05T03:31:48.066Z,9.00
2022-11-05T03:34:17.865Z,9.10
2022-11-05T03:36:50.827Z,9.20
2022-11-05T03:39:23.129Z,9.10
2022-11-05T03:41:53.697Z,9.20
2022-11-05T03:44:26.061Z,9.00
2022-11-05T03:46:56.883Z,9.00
2022-11-05T03:49:34.371Z,9.00
2022-11-05T03:52:08.435Z,9.10
2022-11-05T03:54:35.693Z,9.20
2022-11-05T03:57:15.118Z,9.30
2022-11-05T03:59:47.777Z,9.30
2022-11-05T04:02:16.979Z,9.30
2022-11-05T04:04:44.307Z,9.20
2022-11-05T04:07:30.853Z,9.20
2022-11-05T04:10:16.331Z,9.30
2022-11-05T04:13:01.957Z,9.30
2022-11-05T04:15:51.987Z,9.50
2022-11-05T04:18:19.004Z,9.50
2022-11-05T04:21:04.415Z,9.60
2022-11-05T04:23:49.681Z,9.50
2022-11-05T04:26:16.478Z,9.50
2022-11-05T04:29:07.654Z,9.40
2022-11-05T04:31:34.887Z,9.30
2022-11-05T04:34:01.659Z,9.40
2022-11-05T04:36:28.421Z,9.40
2022-11-05T04:38:55.209Z,9.50
2022-11-05T04:41:21.975Z,9.80
2022-11-05T04:43:49.059Z,9.70
2022-11-05T04:46:15.829Z,9.70
2022-11-05T04:48:42.544Z,9.80
2022-11-05T04:51:09.242Z,9.90
2022-11-05T04:53:36.026Z,9.90
2022-11-05T04:56:10.259Z,10.00
2022-11-05T04:58:41.587Z,10.00
2022-11-05T05:01:16.379Z,10.70
2022-11-05T05:03:43.501Z,10.10
2022-11-05T05:06:10.803Z,10.10
2022-11-05T05:08:37.627Z,10.20
2022-11-05T05:11:06.443Z,10.10
2022-11-05T05:13:33.474Z,10.20
2022-11-05T05:16:04.365Z,10.10
2022-11-05T05:18:31.116Z,10.10
2022-11-05T05:21:17.415Z,10.20
2022-11-05T05:23:44.190Z,10.00
2022-11-05T05:26:10.874Z,10.10
2022-11-05T05:28:37.630Z,10.10
2022-11-05T05:31:04.580Z,10.20
2022-11-05T05:33:31.356Z,10.40
2022-11-05T05:35:58.728Z,10.30
2022-11-05T05:38:25.517Z,10.20
2022-11-05T05:40:52.638Z,10.20
2022-11-05T05:43:19.321Z,10.10
2022-11-05T05:45:46.013Z,9.90
2022-11-05T05:48:12.719Z,9.90
2022-11-05T05:50:39.398Z,9.90
2022-11-05T05:53:06.095Z,9.70
2022-11-05T05:55:32.817Z,9.90
2022-11-05T05:57:59.551Z,9.90
2022-11-05T06:00:26.247Z,9.90
2022-11-05T06:02:56.129Z,9.80
2022-11-05T06:05:22.989Z,9.90
2022-11-05T06:07:57.240Z,9.90
2022-11-05T06:10:25.292Z,10.00
2022-11-05T06:12:52.092Z,10.00
2022-11-05T06:15:18.827Z,10.10
2022-11-05T06:17:45.958Z,10.10
2022-11-05T06:20:13.489Z,9.90
2022-11-05T06:22:40.557Z,9.90
2022-11-05T06:25:08.223Z,10.30
2022-11-05T06:27:36.753Z,10.00
2022-11-05T06:30:04.843Z,10.00
2022-11-05T06:32:31.657Z,10.00
2022-11-05T06:34:58.360Z,9.90
2022-11-05T06:37:25.418Z,9.90
2022-11-05T06:39:52.223Z,9.90
2022-11-05T06:42:19.546Z,9.90
2022-11-05T06:44:46.614Z,10.00
2022-11-05T06:47:13.352Z,10.20
2022-11-05T06:49:40.051Z,10.20
2022-11-05T06:52:06.874Z,10.20
2022-11-05T06:54:33.597Z,10.20
2022-11-05T06:57:00.352Z,10.30
2022-11-05T06:59:27.205Z,10.10
2022-11-05T07:01:54.105Z,10.00
2022-11-05T07:04:20.912Z,10.00
2022-11-05T07:06:47.667Z,10.20
2022-11-05T07:09:14.446Z,10.20
2022-11-05T07:11:41.358Z,10.30
2022-11-05T07:14:08.085Z,10.30
2022-11-05T07:16:34.820Z,9.40
2022-11-05T07:19:01.545Z,10.40
2022-11-05T07:21:28.789Z,10.60
2022-11-05T07:23:55.481Z,10.60
2022-11-05T07:26:22.174Z,11.00
2022-11-05T07:28:49.074Z,10.70
2022-11-05T07:31:15.760Z,10.80
2022-11-05T07:33:42.555Z,11.00
2022-11-05T07:36:10.018Z,11.00
2022-11-05T07:38:36.982Z,11.10
2022-11-05T07:41:03.738Z,11.10
2022-11-05T07:43:30.542Z,11.20
2022-11-05T07:45:57.423Z,11.30
2022-11-05T07:48:24.180Z,11.40
2022-11-05T07:50:52.788Z,11.50
2022-11-05T07:53:20.951Z,11.50
2022-11-05T07:55:47.847Z,11.60
2022-11-05T07:58:14.686Z,11.70
2022-11-05T08:00:41.604Z,11.70
2022-11-05T08:03:19.443Z,11.60
2022-11-05T08:05:47.938Z,11.60
2022-11-05T08:08:17.237Z,11.70
2022-11-05T08:10:44.080Z,11.30
2022-11-05T08:13:11.732Z,11.40
2022-11-05T08:15:39.597Z,11.60
2022-11-05T08:18:10.417Z,11.70
2022-11-05T08:20:38.582Z,11.60
2022-11-05T08:23:05.930Z,11.50
2022-11-05T08:25:32.965Z,11.50
2022-11-05T08:28:02.860Z,11.20
2022-11-05T08:30:41.786Z,11.60
2022-11-05T08:33:13.163Z,11.40
2022-11-05T08:35:40.615Z,11.40
2022-11-05T08:38:09.960Z,11.40
2022-11-05T08:40:37.674Z,11.50
2022-11-05T08:43:06.835Z,11.40
2022-11-05T08:45:34.474Z,11.50
2022-11-05T08:48:07.008Z,11.50
2022-11-05T08:50:33.994Z,11.60
2022-11-05T08:53:01.056Z,11.80
2022-11-05T08:55:27.893Z,11.90
2022-11-05T08:57:59.337Z,11.80
2022-11-05T09:00:27.575Z,11.70
2022-11-05T09:02:55.057Z,11.20
2022-11-05T09:05:21.925Z,11.70
2022-11-05T09:07:48.729Z,11.50
2022-11-05T09:10:15.625Z,11.60
2022-11-05T09:12:42.719Z,11.60
2022-11-05T09:15:09.908Z,11.50
2022-11-05T09:17:36.803Z,11.50
2022-11-05T09:20:07.004Z,11.50
2022-11-05T09:22:36.871Z,11.50
2022-11-05T09:25:06.679Z,12.20
2022-11-05T09:27:33.552Z,11.90
2022-11-05T09:30:00.253Z,12.20
2022-11-05T09:32:26.974Z,12.00
2022-11-05T09:34:53.701Z,12.00
2022-11-05T09:37:21.840Z,11.90
2022-11-05T09:39:48.885Z,11.70
2022-11-05T09:42:17.644Z,11.80
2022-11-05T09:44:49.481Z,11.90
2022-11-05T09:47:24.725Z,11.80
2022-11-05T09:49:57.287Z,11.90
2022-11-05T09:52:27.373Z,12.10
2022-11-05T09:54:55.570Z,11.90
2022-11-05T09:57:29.694Z,12.00
2022-11-05T10:00:01.205Z,12.00
2022-11-05T10:02:35.443Z,12.00
2022-11-05T10:05:10.294Z,11.80
2022-11-05T10:07:51.250Z,11.80
2022-11-05T10:10:44.671Z,11.90
2022-11-05T10:13:29.544Z,11.70
2022-11-05T10:16:13.962Z,11.40
2022-11-05T10:18:44.385Z,11.50
2022-11-05T10:21:32.289Z,11.60
2022-11-05T10:24:15.954Z,11.60
2022-11-05T10:26:44.274Z,11.50
2022-11-05T10:29:22.518Z,11.50
2022-11-05T10:31:49.504Z,11.60
2022-11-05T10:34:17.892Z,11.70
2022-11-05T10:36:44.682Z,11.80
2022-11-05T10:39:18.018Z,12.00
2022-11-05T10:42:06.997Z,12.00
2022-11-05T10:45:07.503Z,12.00
2022-11-05T10:47:56.172Z,12.10
2022-11-05T10:50:29.560Z,12.30
2022-11-05T10:53:00.590Z,12.40
2022-11-05T10:55:34.790Z,12.60
2022-11-05T10:58:09.636Z,12.70
2022-11-05T11:00:37.258Z,12.80
2022-11-05T11:03:25.597Z,12.90
2022-11-05T11:06:02.407Z,12.50
2022-11-05T11:08:33.214Z,12.40
2022-11-05T11:11:05.210Z,12.50
2022-11-05T11:13:59.293Z,12.60
2022-11-05T11:16:28.419Z,12.70
2022-11-05T11:18:59.230Z,12.70
2022-11-05T11:21:27.303Z,12.80
2022-11-05T11:23:55.691Z,12.80
2022-11-05T11:26:25.432Z,12.90
2022-11-05T11:29:16.080Z,12.90
2022-11-05T11:31:43.014Z,12.80
2022-11-05T11:34:22.515Z,13.10
2022-11-05T11:36:54.419Z,13.20
2022-11-05T11:39:26.706Z,13.00
2022-11-05T11:41:57.592Z,12.80
2022-11-05T11:44:32.270Z,12.90
2022-11-05T11:47:03.265Z,13.00
2022-11-05T11:49:45.853Z,13.10
2022-11-05T11:52:26.681Z,13.30
2022-11-05T11:55:06.670Z,13.60
2022-11-05T11:57:50.197Z,13.40
2022-11-05T12:00:22.551Z,13.20
2022-11-05T12:03:17.994Z,13.00
2022-11-05T12:06:05.808Z,13.30
2022-11-05T12:08:54.185Z,13.30
2022-11-05T12:11:58.845Z,13.50
2022-11-05T12:14:34.572Z,13.40
2022-11-05T12:17:07.654Z,13.30
2022-11-05T12:19:57.234Z,13.40
2022-11-05T12:22:48.248Z,13.50
2022-11-05T12:25:29.857Z,13.40
2022-11-05T12:27:59.736Z,13.30
2022-11-05T12:30:31.199Z,13.60
2022-11-05T12:33:17.103Z,13.50
2022-11-05T12:36:00.238Z,13.80
2022-11-05T12:38:41.865Z,13.70
2022-11-05T12:41:37.810Z,13.70
2022-11-05T12:44:46.567Z,13.80
2022-11-05T12:47:32.305Z,13.90
2022-11-05T12:50:10.124Z,14.10
2022-11-05T12:52:59.262Z,14.20
2022-11-05T12:55:31.843Z,14.30
2022-11-05T12:58:13.002Z,14.00
2022-11-05T13:00:46.280Z,13.70
2022-11-05T13:03:24.695Z,13.70
2022-11-05T13:06:21.109Z,13.90
2022-11-05T13:09:05.370Z,13.80
2022-11-05T13:11:35.073Z,13.70
2022-11-05T13:14:13.008Z,13.70
2022-11-05T13:16:45.307Z,13.70
2022-11-05T13:19:20.284Z,13.70
2022-11-05T13:21:53.663Z,13.70
2022-11-05T13:24:42.115Z,13.90
2022-11-05T13:27:18.864Z,13.60
2022-11-05T13:29:52.647Z,13.70
2022-11-05T13:32:26.712Z,13.50
2022-11-05T13:35:01.853Z,13.50
2022-11-05T13:37:53.361Z,13.40
2022-11-05T13:40:25.590Z,13.50
2022-11-05T13:43:08.711Z,13.50
2022-11-05T13:45:50.903Z,13.40
2022-11-05T13:48:40.111Z,13.50
2022-11-05T13:51:23.071Z,13.60
2022-11-05T13:54:08.589Z,13.70
2022-11-05T13:57:04.710Z,13.80
2022-11-05T13:59:56.098Z,14.40
2022-11-05T14:02:28.021Z,13.90
2022-11-05T14:05:02.480Z,14.00
2022-11-05T14:07:36.397Z,14.10
2022-11-05T14:10:24.426Z,13.80
2022-11-05T14:12:54.320Z,13.90
2022-11-05T14:15:24.599Z,13.70
2022-11-05T14:18:35.968Z,13.70
2022-11-05T14:21:05.028Z,13.90
2022-11-05T14:23:34.607Z,13.80
2022-11-05T14:26:01.366Z,14.10
2022-11-05T14:28:38.977Z,14.10
2022-11-05T14:31:31.386Z,14.10
2022-11-05T14:34:11.026Z,14.20
2022-11-05T14:36:39.835Z,14.30
2022-11-05T14:39:21.193Z,14.10
2022-11-05T14:41:57.973Z,14.00
2022-11-05T14:44:25.883Z,14.10
2022-11-05T14:46:57.305Z,14.00
2022-11-05T14:49:57.677Z,13.90
2022-11-05T14:52:24.644Z,14.10
2022-11-05T14:54:54.398Z,14.10
2022-11-05T14:57:43.113Z,13.90
2022-11-05T15:00:30.169Z,13.70
2022-11-05T15:03:28.750Z,13.70
2022-11-05T15:06:22.252Z,13.80
2022-11-05T15:08:49.054Z,13.70
2022-11-05T15:11:35.630Z,13.80
2022-11-05T15:14:18.056Z,13.80
2022-11-05T15:16:50.342Z,13.90
2022-11-05T15:19:32.383Z,14.00
2022-11-05T15:22:03.166Z,14.00
2022-11-05T15:24:31.569Z,14.00
2022-11-05T15:27:33.533Z,13.90
2022-11-05T15:30:16.343Z,14.00
2022-11-05T15:32:43.091Z,13.90
2022-11-05T15:35:26.964Z,14.10
2022-11-05T15:38:01.853Z,14.00
2022-11-05T15:40:36.309Z,13.80
2022-11-05T15:43:19.444Z,13.60
2022-11-05T15:46:00.298Z,13.60
2022-11-05T15:48:27.091Z,13.60
2022-11-05T15:50:54.048Z,13.60
2022-11-05T15:53:56.502Z,13.60
2022-11-05T15:56:23.897Z,13.70
2022-11-05T15:58:54.489Z,14.30
2022-11-05T16:01:36.532Z,13.90
2022-11-05T16:04:21.281Z,13.60
2022-11-05T16:06:50.980Z,13.90
2022-11-05T16:09:27.847Z,13.80
2022-11-05T16:12:15.365Z,13.80
2022-11-05T16:14:42.455Z,13.80
2022-11-05T16:17:21.471Z,13.80
2022-11-05T16:19:49.331Z,13.80
2022-11-05T16:22:16.628Z,14.00
2022-11-05T16:24:44.631Z,14.00
2022-11-05T16:27:29.607Z,14.00
2022-11-05T16:29:57.340Z,13.80
2022-11-05T16:32:31.040Z,13.90
2022-11-05T16:35:05.029Z,13.80
2022-11-05T16:37:40.001Z,14.10
2022-11-05T16:40:16.948Z,13.60
2022-11-05T16:42:45.439Z,13.70
2022-11-05T16:45:14.702Z,13.40
2022-11-05T16:47:42.302Z,13.90
2022-11-05T16:50:31.121Z,13.90
2022-11-05T16:52:57.892Z,14.00
2022-11-05T16:55:24.645Z,14.00
2022-11-05T16:57:53.718Z,13.70
2022-11-05T17:00:21.955Z,13.80
2022-11-05T17:02:49.027Z,13.80
2022-11-05T17:05:26.907Z,13.80
2022-11-05T17:07:54.316Z,14.00
2022-11-05T17:10:22.750Z,13.80
2022-11-05T17:12:50.566Z,13.30
2022-11-05T17:15:27.668Z,14.00
2022-11-05T17:17:55.362Z,13.90
2022-11-05T17:20:41.537Z,13.90
2022-11-05T17:23:14.658Z,13.90
2022-11-05T17:25:43.701Z,14.10
2022-11-05T17:28:12.090Z,14.00
2022-11-05T17:30:41.680Z,14.00
2022-11-05T17:33:09.699Z,14.00
2022-11-05T17:35:39.549Z,13.90
2022-11-05T17:38:06.300Z,13.90
2022-11-05T17:40:35.227Z,13.80
2022-11-05T17:43:02.466Z,13.90
2022-11-05T17:45:29.251Z,13.90
2022-11-05T17:47:56.399Z,14.00
2022-11-05T17:50:23.253Z,13.90
2022-11-05T17:52:50.049Z,13.80
2022-11-05T17:55:17.627Z,13.80
2022-11-05T17:57:47.152Z,14.10
2022-11-05T18:00:20.179Z,14.00
2022-11-05T18:02:49.626Z,14.10
2022-11-05T18:05:21.711Z,14.10
2022-11-05T18:07:49.545Z,14.10
2022-11-05T18:10:16.654Z,14.20
2022-11-05T18:12:44.056Z,14.00
2022-11-05T18:15:10.906Z,14.10
2022-11-05T18:17:37.899Z,14.10
2022-11-05T18:20:11.658Z,14.10
2022-11-05T18:22:42.275Z,14.20
2022-11-05T18:25:11.210Z,14.30
2022-11-05T18:27:38.194Z,14.30
2022-11-05T18:30:06.012Z,14.20
2022-11-05T18:32:33.514Z,14.30
2022-11-05T18:35:00.477Z,14.20
2022-11-05T18:37:27.365Z,14.30
2022-11-05T18:39:54.250Z,14.40
2022-11-05T18:42:21.707Z,14.40
2022-11-05T18:44:48.952Z,14.30
2022-11-05T18:47:15.724Z,14.40
2022-11-05T18:49:42.664Z,14.50
2022-11-05T18:52:09.782Z,14.20
2022-11-05T18:54:36.742Z,14.10
2022-11-05T18:57:03.771Z,14.10
2022-11-05T18:59:37.107Z,14.20
2022-11-05T19:02:05.798Z,14.00
2022-11-05T19:04:33.057Z,14.30
2022-11-05T19:07:04.435Z,14.40
2022-11-05T19:09:32.466Z,14.20
2022-11-05T19:11:59.205Z,14.30
2022-11-05T19:14:26.026Z,14.40
2022-11-05T19:16:52.719Z,14.20
2022-11-05T19:19:19.619Z,14.30
2022-11-05T19:21:46.358Z,14.40
2022-11-05T19:24:20.125Z,14.50
2022-11-05T19:26:47.523Z,14.30
2022-11-05T19:29:14.279Z,14.30
2022-11-05T19:31:41.258Z,14.40
2022-11-05T19:34:08.383Z,14.50
2022-11-05T19:36:36.731Z,14.40
2022-11-05T19:39:06.509Z,14.40
2022-11-05T19:41:33.792Z,14.50
2022-11-05T19:44:01.935Z,14.60
2022-11-05T19:46:30.109Z,14.70
2022-11-05T19:48:57.347Z,14.70
2022-11-05T19:51:27.386Z,14.60
2022-11-05T19:53:55.388Z,14.30
2022-11-05T19:56:31.121Z,14.10
2022-11-05T19:58:59.161Z,14.10
2022-11-05T20:01:28.011Z,14.10
2022-11-05T20:03:57.000Z,14.40
2022-11-05T20:06:37.860Z,14.30
2022-11-05T20:09:21.246Z,14.40
2022-11-05T20:11:49.895Z,14.50
2022-11-05T20:14:17.180Z,14.50
2022-11-05T20:16:46.190Z,14.30
2022-11-05T20:19:15.372Z,14.50
2022-11-05T20:21:42.244Z,14.60
2022-11-05T20:24:09.939Z,14.70
2022-11-05T20:26:37.312Z,14.70
2022-11-05T20:29:04.416Z,14.80
2022-11-05T20:31:31.209Z,14.70
2022-11-05T20:33:57.969Z,14.80
2022-11-05T20:36:25.933Z,15.00
2022-11-05T20:38:55.379Z,15.00
2022-11-05T20:41:24.993Z,15.00
2022-11-05T20:43:52.101Z,15.00
2022-11-05T20:46:20.223Z,15.00
2022-11-05T20:48:47.179Z,14.70
2022-11-05T20:51:16.593Z,14.70
2022-11-05T20:53:44.078Z,14.70
2022-11-05T20:56:19.591Z,14.70
2022-11-05T20:58:47.500Z,14.90
2022-11-05T21:01:16.678Z,14.80
2022-11-05T21:03:45.131Z,14.80
2022-11-05T21:06:12.561Z,14.70
2022-11-05T21:08:39.665Z,14.70
2022-11-05T21:11:07.427Z,14.70
2022-11-05T21:13:34.732Z,14.90
2022-11-05T21:16:02.466Z,14.70
2022-11-05T21:18:33.399Z,14.50
2022-11-05T21:21:00.482Z,14.70
2022-11-05T21:23:28.686Z,14.80
2022-11-05T21:25:55.994Z,14.90
2022-11-05T21:28:23.048Z,14.90
2022-11-05T21:30:49.948Z,14.90
2022-11-05T21:33:18.818Z,14.90
2022-11-05T21:35:47.729Z,15.10
2022-11-05T21:38:16.432Z,15.00
2022-11-05T21:40:44.372Z,15.10
2022-11-05T21:43:12.001Z,15.20
2022-11-05T21:45:44.001Z,15.10
2022-11-05T21:48:11.818Z,15.10
2022-11-05T21:50:58.621Z,15.10
2022-11-05T21:53:44.245Z,15.10
2022-11-05T21:56:39.707Z,15.00
2022-11-05T21:59:25.382Z,14.90
2022-11-05T22:02:01.276Z,14.60
2022-11-05T22:04:33.600Z,14.60
2022-11-05T22:07:00.794Z,14.70
2022-11-05T22:09:27.871Z,14.80
2022-11-05T22:11:55.032Z,14.60
2022-11-05T22:14:22.409Z,14.80
2022-11-05T22:16:49.332Z,14.90
2022-11-05T22:19:16.158Z,14.80
2022-11-05T22:21:42.992Z,14.80
2022-11-05T22:24:09.960Z,14.80
2022-11-05T22:26:37.677Z,14.80
2022-11-05T22:29:06.141Z,15.10
2022-11-05T22:31:36.150Z,14.80
2022-11-05T22:34:04.948Z,14.80
2022-11-05T22:36:32.909Z,14.90
2022-11-05T22:38:59.989Z,14.90
2022-11-05T22:41:27.079Z,14.80
2022-11-05T22:43:54.092Z,14.90
2022-11-05T22:46:23.088Z,14.80
2022-11-05T22:48:50.335Z,14.90
2022-11-05T22:51:20.594Z,14.90
2022-11-05T22:53:47.912Z,14.80
2022-11-05T22:56:17.809Z,14.80
2022-11-05T22:58:44.872Z,14.80
2022-11-05T23:01:13.062Z,14.80
2022-11-05T23:03:41.545Z,14.60
2022-11-05T23:06:32.002Z,14.20
2022-11-05T23:09:18.371Z,14.50
2022-11-05T23:11:49.134Z,14.40
2022-11-05T23:14:16.177Z,14.20
2022-11-05T23:17:22.069Z,14.20
2022-11-05T23:20:24.250Z,14.20
2022-11-05T23:23:09.517Z,14.00
2022-11-05T23:25:36.344Z,13.90
2022-11-05T23:28:07.042Z,14.00
2022-11-05T23:30:34.172Z,13.90
2022-11-05T23:33:00.866Z,13.90
2022-11-05T23:36:03.329Z,13.90
2022-11-05T23:38:36.551Z,14.10
2022-11-05T23:41:22.962Z,14.10
2022-11-05T23:44:08.982Z,13.80
2022-11-05T23:46:54.799Z,13.80
2022-11-05T23:49:22.129Z,13.80
2022-11-05T23:51:49.594Z,13.70
2022-11-05T23:54:16.397Z,13.70
2022-11-05T23:56:43.186Z,13.70
2022-11-05T23:59:09.896Z,13.70
